Sumach, Washington
Current Conditions -  °F | °C
As of 9:53 PM on Friday 31 Oct 2014 (Local Time) from KYKM Reporting Station
Clear Clear  
Wind Chill: 45°   Ceiling: Unl
Heat Index: 48°   Visibility: 10mi
Dew Point: 42°   Wind: 6mph
Humidity: 80%   Direction: 310°NW
Pressure: 29.81"   Gusts: NA
Location:  46.562°N, 120.899°W
Report Text: KYKM 010453Z 31005KT 10SM CLR 09/06 A2981 RMK AO2 SLP096 T00890056
Loading
Personal Weather Stations






























Interactive Weather Map
Tropical Storm Tracking
New forecast layout! Learn more

10-Day Weather Forecast

Advertisements
Track Severe Weather on mobile